INFORMAÇÕES DO AERODROMO
Icao Aerodromo KSRR Nome do Aerodromo Sierra Blanca Regional Airport Cidade Ruidoso
Código GPS KSRR Elevação Média 6814 ft Tipo de Aerodromo Aeroporto Médio Porte

INFORMAÇÃO DE PISTA
Pista 06 Comprimento da Pista 8099 ft Largura da Pista 100 ft
Elevação da Pista 6814 ft Distância de Area de Escape da Pista 0 ft Orientação da Pista 71
Pista 24 Comprimento da Pista 8099 ft Largura da Pista 100 ft
Elevação da Pista 6751 ft Distância de Area de Escape da Pista 0 ft Orientação da Pista 251
Pista 12 Comprimento da Pista 6500 ft Largura da Pista 75 ft
Elevação da Pista 6769 ft Distância de Area de Escape da Pista 0 ft Orientação da Pista 130
Pista 30 Comprimento da Pista 6500 ft Largura da Pista 75 ft
Elevação da Pista 6718 ft Distância de Area de Escape da Pista 0 ft Orientação da Pista 310

FREQUÊNCIAS DO AERODROMO
Tipo AWOS Nome AWOS 3 Frequência 126.475 MHZ
Tipo CNTR Nome ALBUQUERQU Frequência 132.65 MHZ
Tipo FSS Nome ALBUQUERQU Frequência 122.25 MHZ
Tipo UNIC Nome CTAF/UNICO Frequência 122.8 MHZ

INFORMAÇÕES DE NAVEGAÇÃO PRÓXIMO AO AERODROMO
Tipo NDB Nome Capitan Frequência 278 KHZ

Informações de Meteorologia(METAR atual)
METAR DE KSRR
ADDS - METARS form results

(2020 UTC 14 November 2018)
Data provider http://aviationweather.gov/metar/data/
 
METAR text: KSRR 142015Z AUTO 03003KT 10SM CLR 10/M09 A3038 RMK AO2
Conditions at: KSRR (SIERRA B/RUIDOSO, NM, US) observed 2015 UTC 14 November 2018
Temperature: 10.0°C (50°F)
Dewpoint: -9.0°C (16°F) [RH = 25%]
Pressure (altimeter): 30.38 inches Hg (1028.9 mb)
Winds: from the NNE (30 degrees) at 3 MPH (3 knots; 1.5 m/s)
Visibility: 10 or more miles (16+ km)
Ceiling: at least 12,000 feet AGL
Clouds: sky clear below 12,000 feet AGL
Weather: automated observation with no human augmentation;
there may or may not be significant weather present at this time

METAR text: KSRR 141955Z AUTO 35004KT 10SM CLR 09/M09 A3039 RMK AO2
Conditions at: KSRR (SIERRA B/RUIDOSO, NM, US) observed 1955 UTC 14 November 2018
Temperature: 9.0°C (48°F)
Dewpoint: -9.0°C (16°F) [RH = 27%]
Pressure (altimeter): 30.39 inches Hg (1029.2 mb)
Winds: from the N (350 degrees) at 5 MPH (4 knots; 2.1 m/s)
Visibility: 10 or more miles (16+ km)
Ceiling: at least 12,000 feet AGL
Clouds: sky clear below 12,000 feet AGL
Weather: automated observation with no human augmentation;
there may or may not be significant weather present at this time

METAR text: KSRR 141935Z AUTO 00000KT 10SM CLR 09/M09 A3040 RMK AO2
Conditions at: KSRR (SIERRA B/RUIDOSO, NM, US) observed 1935 UTC 14 November 2018
Temperature: 9.0°C (48°F)
Dewpoint: -9.0°C (16°F) [RH = 27%]
Pressure (altimeter): 30.40 inches Hg (1029.5 mb)
Winds: calm
Visibility: 10 or more miles (16+ km)
Ceiling: at least 12,000 feet AGL
Clouds: sky clear below 12,000 feet AGL
Weather: automated observation with no human augmentation;
there may or may not be significant weather present at this time

MAPA DO AERODROMO


Desenvolvido por Virtual Airlines Manager




Modificado por Servidor Brasil Amigos